sensor_id;sensor_type;location;lat;lon;timestamp;pressure;altitude;pressure_sealevel;temperature;humidity
12475;BME280;6302;42.624;23.334;2023-03-17T00:00:06;93398.91;;;0.99;100.00
12475;BME280;6302;42.624;23.334;2023-03-17T00:02:36;93392.28;;;1.02;100.00
12475;BME280;6302;42.624;23.334;2023-03-17T00:05:19;93389.69;;;1.02;100.00
12475;BME280;6302;42.624;23.334;2023-03-17T00:07:47;93384.47;;;1.02;100.00
12475;BME280;6302;42.624;23.334;2023-03-17T00:10:17;93392.94;;;1.11;100.00
12475;BME280;6302;42.624;23.334;2023-03-17T00:12:44;93390.56;;;1.06;100.00
12475;BME280;6302;42.624;23.334;2023-03-17T00:15:12;93390.09;;;1.16;100.00
12475;BME280;6302;42.624;23.334;2023-03-17T00:17:41;93392.78;;;1.19;100.00
12475;BME280;6302;42.624;23.334;2023-03-17T00:20:13;93387.69;;;1.23;100.00
12475;BME280;6302;42.624;23.334;2023-03-17T00:22:41;93390.53;;;1.18;100.00
12475;BME280;6302;42.624;23.334;2023-03-17T00:25:17;93397.03;;;1.24;100.00
12475;BME280;6302;42.624;23.334;2023-03-17T00:27:45;93391.28;;;1.18;100.00
12475;BME280;6302;42.624;23.334;2023-03-17T00:30:12;93390.06;;;1.28;100.00
12475;BME280;6302;42.624;23.334;2023-03-17T00:32:40;93386.38;;;1.17;100.00
12475;BME280;6302;42.624;23.334;2023-03-17T00:35:16;93391.03;;;1.23;100.00
12475;BME280;6302;42.624;23.334;2023-03-17T00:37:44;93386.81;;;1.19;100.00
12475;BME280;6302;42.624;23.334;2023-03-17T00:40:16;93400.81;;;1.26;100.00
12475;BME280;6302;42.624;23.334;2023-03-17T00:42:43;93380.75;;;1.15;100.00
12475;BME280;6302;42.624;23.334;2023-03-17T00:45:10;93385.75;;;1.08;100.00
12475;BME280;6302;42.624;23.334;2023-03-17T00:47:37;93386.31;;;1.13;100.00
12475;BME280;6302;42.624;23.334;2023-03-17T00:50:10;93385.19;;;1.14;100.00
12475;BME280;6302;42.624;23.334;2023-03-17T00:52:37;93392.22;;;1.26;100.00
12475;BME280;6302;42.624;23.334;2023-03-17T00:55:06;93397.44;;;1.26;100.00
12475;BME280;6302;42.624;23.334;2023-03-17T00:57:34;93402.22;;;1.36;100.00
12475;BME280;6302;42.624;23.334;2023-03-17T01:00:02;93399.81;;;1.31;100.00
12475;BME280;6302;42.624;23.334;2023-03-17T01:02:29;93405.50;;;1.33;100.00
12475;BME280;6302;42.624;23.334;2023-03-17T01:04:56;93404.41;;;1.34;100.00
12475;BME280;6302;42.624;23.334;2023-03-17T01:07:27;93401.56;;;1.39;100.00
12475;BME280;6302;42.624;23.334;2023-03-17T01:09:55;93405.78;;;1.44;100.00
12475;BME280;6302;42.624;23.334;2023-03-17T01:12:23;93405.13;;;1.47;100.00
12475;BME280;6302;42.624;23.334;2023-03-17T01:14:50;93413.41;;;1.37;100.00
12475;BME280;6302;42.624;23.334;2023-03-17T01:17:17;93410.50;;;1.38;100.00
12475;BME280;6302;42.624;23.334;2023-03-17T01:19:44;93411.34;;;1.42;100.00
12475;BME280;6302;42.624;23.334;2023-03-17T01:22:12;93403.28;;;1.47;100.00
12475;BME280;6302;42.624;23.334;2023-03-17T01:24:40;93402.94;;;1.49;100.00
12475;BME280;6302;42.624;23.334;2023-03-17T01:27:07;93408.72;;;1.42;100.00
12475;BME280;6302;42.624;23.334;2023-03-17T01:29:34;93405.47;;;1.45;100.00
12475;BME280;6302;42.624;23.334;2023-03-17T01:32:02;93409.53;;;1.58;100.00
12475;BME280;6302;42.624;23.334;2023-03-17T01:34:29;93411.91;;;1.63;100.00
12475;BME280;6302;42.624;23.334;2023-03-17T01:36:56;93415.06;;;1.69;100.00
12475;BME280;6302;42.624;23.334;2023-03-17T01:39:23;93410.41;;;1.62;100.00
12475;BME280;6302;42.624;23.334;2023-03-17T01:41:51;93412.63;;;1.76;100.00
12475;BME280;6302;42.624;23.334;2023-03-17T01:44:21;93415.66;;;1.78;100.00
12475;BME280;6302;42.624;23.334;2023-03-17T01:46:48;93423.94;;;1.80;100.00
12475;BME280;6302;42.624;23.334;2023-03-17T01:49:18;93417.06;;;1.87;100.00
12475;BME280;6302;42.624;23.334;2023-03-17T01:51:51;93414.94;;;1.93;100.00
12475;BME280;6302;42.624;23.334;2023-03-17T01:54:24;93415.47;;;1.98;100.00
12475;BME280;6302;42.624;23.334;2023-03-17T01:57:00;93417.31;;;1.98;100.00
12475;BME280;6302;42.624;23.334;2023-03-17T01:59:32;93428.34;;;1.91;100.00
12475;BME280;6302;42.624;23.334;2023-03-17T02:02:03;93425.06;;;1.94;100.00
12475;BME280;6302;42.624;23.334;2023-03-17T02:04:32;93415.03;;;1.96;100.00
12475;BME280;6302;42.624;23.334;2023-03-17T02:06:59;93424.34;;;2.10;100.00
12475;BME280;6302;42.624;23.334;2023-03-17T02:09:28;93422.91;;;2.12;100.00
12475;BME280;6302;42.624;23.334;2023-03-17T02:11:58;93427.97;;;2.21;100.00
12475;BME280;6302;42.624;23.334;2023-03-17T02:14:26;93425.94;;;2.14;100.00
12475;BME280;6302;42.624;23.334;2023-03-17T02:16:53;93426.03;;;2.18;100.00
12475;BME280;6302;42.624;23.334;2023-03-17T02:19:20;93432.13;;;2.22;100.00
12475;BME280;6302;42.624;23.334;2023-03-17T02:21:50;93428.81;;;2.25;100.00
12475;BME280;6302;42.624;23.334;2023-03-17T02:24:26;93423.25;;;2.26;100.00
12475;BME280;6302;42.624;23.334;2023-03-17T02:26:54;93430.75;;;2.28;100.00
12475;BME280;6302;42.624;23.334;2023-03-17T02:29:22;93431.63;;;2.32;100.00
12475;BME280;6302;42.624;23.334;2023-03-17T02:31:49;93443.69;;;2.36;100.00
12475;BME280;6302;42.624;23.334;2023-03-17T02:34:16;93443.59;;;2.33;100.00
12475;BME280;6302;42.624;23.334;2023-03-17T02:36:43;93436.84;;;2.32;100.00
12475;BME280;6302;42.624;23.334;2023-03-17T02:39:12;93452.31;;;2.37;100.00
12475;BME280;6302;42.624;23.334;2023-03-17T02:41:39;93451.28;;;2.41;100.00
12475;BME280;6302;42.624;23.334;2023-03-17T02:44:06;93449.84;;;2.44;100.00
12475;BME280;6302;42.624;23.334;2023-03-17T02:46:33;93455.16;;;2.47;100.00
12475;BME280;6302;42.624;23.334;2023-03-17T02:49:00;93456.53;;;2.41;100.00
12475;BME280;6302;42.624;23.334;2023-03-17T02:51:27;93460.06;;;2.49;100.00
12475;BME280;6302;42.624;23.334;2023-03-17T02:53:54;93454.84;;;2.49;100.00
12475;BME280;6302;42.624;23.334;2023-03-17T02:56:22;93465.78;;;2.54;100.00
12475;BME280;6302;42.624;23.334;2023-03-17T02:58:49;93463.44;;;2.49;100.00
12475;BME280;6302;42.624;23.334;2023-03-17T03:01:16;93463.44;;;2.49;100.00
12475;BME280;6302;42.624;23.334;2023-03-17T03:03:43;93463.44;;;2.49;100.00
12475;BME280;6302;42.624;23.334;2023-03-17T03:06:10;93463.44;;;2.49;100.00
12475;BME280;6302;42.624;23.334;2023-03-17T03:08:37;93463.44;;;2.49;100.00
12475;BME280;6302;42.624;23.334;2023-03-17T03:11:04;93459.06;;;2.53;100.00
12475;BME280;6302;42.624;23.334;2023-03-17T03:13:32;93466.91;;;2.53;100.00
12475;BME280;6302;42.624;23.334;2023-03-17T03:15:59;93462.09;;;2.55;100.00
12475;BME280;6302;42.624;23.334;2023-03-17T03:18:26;93472.22;;;2.57;100.00
12475;BME280;6302;42.624;23.334;2023-03-17T03:20:53;93456.69;;;2.48;100.00
12475;BME280;6302;42.624;23.334;2023-03-17T03:23:19;93471.09;;;2.42;100.00
12475;BME280;6302;42.624;23.334;2023-03-17T03:25:46;93478.09;;;2.38;100.00
12475;BME280;6302;42.624;23.334;2023-03-17T03:28:13;93479.53;;;2.36;100.00
12475;BME280;6302;42.624;23.334;2023-03-17T03:30:41;93483.72;;;2.25;100.00
12475;BME280;6302;42.624;23.334;2023-03-17T03:33:10;93483.72;;;2.25;100.00
12475;BME280;6302;42.624;23.334;2023-03-17T03:35:37;93484.59;;;2.29;100.00
12475;BME280;6302;42.624;23.334;2023-03-17T03:38:04;93490.00;;;2.36;100.00
12475;BME280;6302;42.624;23.334;2023-03-17T03:40:31;93492.19;;;2.34;100.00
12475;BME280;6302;42.624;23.334;2023-03-17T03:42:58;93491.53;;;2.37;100.00
12475;BME280;6302;42.624;23.334;2023-03-17T03:45:25;93493.44;;;2.40;100.00
12475;BME280;6302;42.624;23.334;2023-03-17T03:47:53;93491.19;;;2.38;100.00
12475;BME280;6302;42.624;23.334;2023-03-17T03:50:20;93493.91;;;2.42;100.00
12475;BME280;6302;42.624;23.334;2023-03-17T03:52:48;93490.94;;;2.43;100.00
12475;BME280;6302;42.624;23.334;2023-03-17T03:55:15;93494.31;;;2.44;100.00
12475;BME280;6302;42.624;23.334;2023-03-17T03:57:42;93499.44;;;2.40;100.00
12475;BME280;6302;42.624;23.334;2023-03-17T04:00:11;93495.88;;;2.33;100.00
12475;BME280;6302;42.624;23.334;2023-03-17T04:02:39;93505.03;;;2.39;100.00
12475;BME280;6302;42.624;23.334;2023-03-17T04:05:07;93501.75;;;2.42;100.00
12475;BME280;6302;42.624;23.334;2023-03-17T04:07:34;93499.44;;;2.40;100.00
12475;BME280;6302;42.624;23.334;2023-03-17T04:10:02;93508.25;;;2.48;100.00
12475;BME280;6302;42.624;23.334;2023-03-17T04:12:29;93505.19;;;2.46;100.00
12475;BME280;6302;42.624;23.334;2023-03-17T04:14:56;93510.84;;;2.48;100.00
12475;BME280;6302;42.624;23.334;2023-03-17T04:17:22;93510.19;;;2.51;100.00
12475;BME280;6302;42.624;23.334;2023-03-17T04:19:49;93512.81;;;2.51;100.00
12475;BME280;6302;42.624;23.334;2023-03-17T04:22:18;93506.03;;;2.50;100.00
12475;BME280;6302;42.624;23.334;2023-03-17T04:24:44;93503.84;;;2.52;100.00
12475;BME280;6302;42.624;23.334;2023-03-17T04:27:11;93513.47;;;2.48;100.00
12475;BME280;6302;42.624;23.334;2023-03-17T04:29:40;93526.47;;;2.44;100.00
12475;BME280;6302;42.624;23.334;2023-03-17T04:32:08;93524.06;;;2.24;100.00
12475;BME280;6302;42.624;23.334;2023-03-17T04:34:36;93527.38;;;2.09;100.00
12475;BME280;6302;42.624;23.334;2023-03-17T04:37:02;93532.38;;;2.14;100.00
12475;BME280;6302;42.624;23.334;2023-03-17T04:39:31;93524.72;;;2.21;100.00
12475;BME280;6302;42.624;23.334;2023-03-17T04:41:57;93531.28;;;2.15;100.00
12475;BME280;6302;42.624;23.334;2023-03-17T04:44:24;93525.69;;;1.88;100.00
12475;BME280;6302;42.624;23.334;2023-03-17T04:46:51;93543.44;;;1.95;100.00
12475;BME280;6302;42.624;23.334;2023-03-17T04:49:18;93529.19;;;1.92;100.00
12475;BME280;6302;42.624;23.334;2023-03-17T04:51:45;93540.78;;;2.07;100.00
12475;BME280;6302;42.624;23.334;2023-03-17T04:54:12;93542.69;;;1.94;100.00
12475;BME280;6302;42.624;23.334;2023-03-17T04:56:40;93551.50;;;1.90;100.00
12475;BME280;6302;42.624;23.334;2023-03-17T04:59:07;93549.41;;;1.95;100.00
12475;BME280;6302;42.624;23.334;2023-03-17T05:01:34;93550.75;;;1.89;100.00
12475;BME280;6302;42.624;23.334;2023-03-17T05:04:01;93547.97;;;1.98;100.00
12475;BME280;6302;42.624;23.334;2023-03-17T05:06:28;93551.41;;;1.86;100.00
12475;BME280;6302;42.624;23.334;2023-03-17T05:08:55;93548.78;;;1.86;100.00
12475;BME280;6302;42.624;23.334;2023-03-17T05:11:22;93559.84;;;1.95;100.00
12475;BME280;6302;42.624;23.334;2023-03-17T05:13:50;93557.28;;;1.83;100.00
12475;BME280;6302;42.624;23.334;2023-03-17T05:16:17;93570.13;;;1.88;100.00
12475;BME280;6302;42.624;23.334;2023-03-17T05:18:44;93569.25;;;1.84;100.00
12475;BME280;6302;42.624;23.334;2023-03-17T05:21:11;93571.66;;;1.89;100.00
12475;BME280;6302;42.624;23.334;2023-03-17T05:23:38;93570.22;;;1.92;100.00
12475;BME280;6302;42.624;23.334;2023-03-17T05:26:05;93583.91;;;2.01;100.00
12475;BME280;6302;42.624;23.334;2023-03-17T05:28:32;93587.34;;;1.89;100.00
12475;BME280;6302;42.624;23.334;2023-03-17T05:31:00;93588.09;;;1.90;100.00
12475;BME280;6302;42.624;23.334;2023-03-17T05:33:27;93581.22;;;1.85;100.00
12475;BME280;6302;42.624;23.334;2023-03-17T05:35:54;93591.03;;;1.88;100.00
12475;BME280;6302;42.624;23.334;2023-03-17T05:38:21;93580.16;;;1.74;100.00
12475;BME280;6302;42.624;23.334;2023-03-17T05:40:49;93593.66;;;1.76;100.00
12475;BME280;6302;42.624;23.334;2023-03-17T05:43:17;93584.75;;;1.65;100.00
12475;BME280;6302;42.624;23.334;2023-03-17T05:45:43;93600.41;;;1.89;100.00
12475;BME280;6302;42.624;23.334;2023-03-17T05:48:13;93601.91;;;1.78;100.00
12475;BME280;6302;42.624;23.334;2023-03-17T05:50:40;93599.66;;;1.77;100.00
12475;BME280;6302;42.624;23.334;2023-03-17T05:53:07;93599.28;;;1.90;100.00
12475;BME280;6302;42.624;23.334;2023-03-17T05:55:34;93611.16;;;1.88;100.00
12475;BME280;6302;42.624;23.334;2023-03-17T05:58:00;93611.84;;;1.85;100.00
12475;BME280;6302;42.624;23.334;2023-03-17T06:00:29;93609.19;;;1.97;100.00
12475;BME280;6302;42.624;23.334;2023-03-17T06:02:57;93610.91;;;2.05;100.00
12475;BME280;6302;42.624;23.334;2023-03-17T06:05:25;93612.25;;;1.99;100.00
12475;BME280;6302;42.624;23.334;2023-03-17T06:07:52;93615.47;;;2.08;100.00
12475;BME280;6302;42.624;23.334;2023-03-17T06:10:19;93624.44;;;2.07;100.00
12475;BME280;6302;42.624;23.334;2023-03-17T06:12:46;93636.31;;;2.05;100.00
12475;BME280;6302;42.624;23.334;2023-03-17T06:15:13;93631.28;;;2.12;100.00
12475;BME280;6302;42.624;23.334;2023-03-17T06:17:41;93639.75;;;2.21;100.00
12475;BME280;6302;42.624;23.334;2023-03-17T06:20:08;93647.72;;;2.12;100.00
12475;BME280;6302;42.624;23.334;2023-03-17T06:22:37;93654.44;;;2.25;100.00
12475;BME280;6302;42.624;23.334;2023-03-17T06:25:06;93658.03;;;2.33;100.00
12475;BME280;6302;42.624;23.334;2023-03-17T06:27:33;93639.88;;;2.24;100.00
12475;BME280;6302;42.624;23.334;2023-03-17T06:30:00;93656.41;;;2.28;100.00
12475;BME280;6302;42.624;23.334;2023-03-17T06:32:27;93658.25;;;2.28;100.00
12475;BME280;6302;42.624;23.334;2023-03-17T06:34:55;93662.72;;;2.27;100.00
12475;BME280;6302;42.624;23.334;2023-03-17T06:37:21;93664.56;;;2.39;100.00
12475;BME280;6302;42.624;23.334;2023-03-17T06:39:50;93660.53;;;2.41;100.00
12475;BME280;6302;42.624;23.334;2023-03-17T06:42:16;93659.88;;;2.44;100.00
12475;BME280;6302;42.624;23.334;2023-03-17T06:44:43;93659.94;;;2.48;100.00
12475;BME280;6302;42.624;23.334;2023-03-17T06:47:10;93663.19;;;2.57;100.00
12475;BME280;6302;42.624;23.334;2023-03-17T06:49:37;93664.91;;;2.65;100.00
12475;BME280;6302;42.624;23.334;2023-03-17T06:52:04;93660.00;;;2.63;100.00
12475;BME280;6302;42.624;23.334;2023-03-17T06:54:32;93662.41;;;2.69;100.00
12475;BME280;6302;42.624;23.334;2023-03-17T06:57:02;93665.03;;;2.84;100.00
12475;BME280;6302;42.624;23.334;2023-03-17T06:59:29;93665.44;;;2.98;100.00
12475;BME280;6302;42.624;23.334;2023-03-17T07:01:56;93679.53;;;3.09;100.00
12475;BME280;6302;42.624;23.334;2023-03-17T07:04:23;93666.22;;;2.87;100.00
12475;BME280;6302;42.624;23.334;2023-03-17T07:06:52;93669.31;;;2.89;100.00
12475;BME280;6302;42.624;23.334;2023-03-17T07:09:19;93680.44;;;3.01;100.00
12475;BME280;6302;42.624;23.334;2023-03-17T07:11:46;93678.53;;;2.98;100.00
12475;BME280;6302;42.624;23.334;2023-03-17T07:14:15;93673.22;;;3.10;100.00
12475;BME280;6302;42.624;23.334;2023-03-17T07:16:43;93679.16;;;3.23;100.00
12475;BME280;6302;42.624;23.334;2023-03-17T07:19:10;93684.41;;;3.23;100.00
12475;BME280;6302;42.624;23.334;2023-03-17T07:21:37;93679.66;;;3.28;100.00
12475;BME280;6302;42.624;23.334;2023-03-17T07:24:04;93677.97;;;3.36;100.00
12475;BME280;6302;42.624;23.334;2023-03-17T07:26:31;93680.84;;;3.31;100.00
12475;BME280;6302;42.624;23.334;2023-03-17T07:28:58;93691.38;;;3.19;100.00
12475;BME280;6302;42.624;23.334;2023-03-17T07:31:27;93682.34;;;3.01;100.00
12475;BME280;6302;42.624;23.334;2023-03-17T07:33:54;93688.59;;;3.12;100.00
12475;BME280;6302;42.624;23.334;2023-03-17T07:36:22;93685.66;;;3.13;100.00
12475;BME280;6302;42.624;23.334;2023-03-17T07:38:49;93679.16;;;3.23;100.00
12475;BME280;6302;42.624;23.334;2023-03-17T07:41:16;93678.56;;;3.29;100.00
12475;BME280;6302;42.624;23.334;2023-03-17T07:43:42;93690.00;;;3.37;100.00
12475;BME280;6302;42.624;23.334;2023-03-17T07:46:09;93691.94;;;3.56;100.00
12475;BME280;6302;42.624;23.334;2023-03-17T07:48:38;93695.84;;;3.62;100.00
12475;BME280;6302;42.624;23.334;2023-03-17T07:51:09;93705.13;;;3.59;100.00
12475;BME280;6302;42.624;23.334;2023-03-17T07:53:38;93696.00;;;3.69;100.00
12475;BME280;6302;42.624;23.334;2023-03-17T07:56:06;93700.47;;;3.68;100.00
12475;BME280;6302;42.624;23.334;2023-03-17T07:58:33;93700.25;;;3.58;100.00
12475;BME280;6302;42.624;23.334;2023-03-17T08:01:00;93700.91;;;3.55;100.00
12475;BME280;6302;42.624;23.334;2023-03-17T08:03:27;93704.63;;;3.54;100.00
12475;BME280;6302;42.624;23.334;2023-03-17T08:05:57;93709.88;;;3.54;100.00
12475;BME280;6302;42.624;23.334;2023-03-17T08:08:26;93702.25;;;3.49;100.00
12475;BME280;6302;42.624;23.334;2023-03-17T08:10:59;93699.03;;;3.40;100.00
12475;BME280;6302;42.624;23.334;2023-03-17T08:13:26;93699.81;;;3.56;100.00
12475;BME280;6302;42.624;23.334;2023-03-17T08:15:54;93701.69;;;3.55;100.00
12475;BME280;6302;42.624;23.334;2023-03-17T08:18:21;93689.06;;;3.61;100.00
12475;BME280;6302;42.624;23.334;2023-03-17T08:20:48;93705.91;;;3.60;100.00
12475;BME280;6302;42.624;23.334;2023-03-17T08:23:17;93700.50;;;3.53;100.00
12475;BME280;6302;42.624;23.334;2023-03-17T08:25:44;93714.00;;;3.70;100.00
12475;BME280;6302;42.624;23.334;2023-03-17T08:28:12;93716.38;;;3.75;100.00
12475;BME280;6302;42.624;23.334;2023-03-17T08:30:39;93713.44;;;3.77;100.00
12475;BME280;6302;42.624;23.334;2023-03-17T08:33:07;93719.09;;;3.94;100.00
12475;BME280;6302;42.624;23.334;2023-03-17T08:35:34;93713.16;;;3.97;100.00
12475;BME280;6302;42.624;23.334;2023-03-17T08:38:01;93715.63;;;4.06;100.00
12475;BME280;6302;42.624;23.334;2023-03-17T08:40:29;93708.84;;;4.05;100.00
12475;BME280;6302;42.624;23.334;2023-03-17T08:42:56;93711.47;;;4.05;100.00
12475;BME280;6302;42.624;23.334;2023-03-17T08:45:23;93710.78;;;4.08;100.00
12475;BME280;6302;42.624;23.334;2023-03-17T08:47:50;93707.16;;;3.97;100.00
12475;BME280;6302;42.624;23.334;2023-03-17T08:50:19;93711.28;;;4.14;100.00
12475;BME280;6302;42.624;23.334;2023-03-17T08:52:46;93713.63;;;4.34;100.00
12475;BME280;6302;42.624;23.334;2023-03-17T08:55:15;93708.13;;;4.39;100.00
12475;BME280;6302;42.624;23.334;2023-03-17T08:57:44;93717.09;;;4.38;100.00
12475;BME280;6302;42.624;23.334;2023-03-17T09:00:13;93712.91;;;4.53;100.00
12475;BME280;6302;42.624;23.334;2023-03-17T09:02:41;93712.28;;;4.59;100.00
12475;BME280;6302;42.624;23.334;2023-03-17T09:05:11;93705.13;;;4.56;100.00
12475;BME280;6302;42.624;23.334;2023-03-17T09:07:38;93711.06;;;4.73;100.00
12475;BME280;6302;42.624;23.334;2023-03-17T09:10:07;93716.88;;;4.82;100.00
12475;BME280;6302;42.624;23.334;2023-03-17T09:12:35;93718.25;;;4.95;100.00
12475;BME280;6302;42.624;23.334;2023-03-17T09:15:04;93719.66;;;5.08;100.00
12475;BME280;6302;42.624;23.334;2023-03-17T09:17:32;93718.53;;;5.09;100.00
12475;BME280;6302;42.624;23.334;2023-03-17T09:19:59;93705.06;;;5.10;100.00
12475;BME280;6302;42.624;23.334;2023-03-17T09:22:25;93724.47;;;5.25;100.00
12475;BME280;6302;42.624;23.334;2023-03-17T09:24:52;93723.56;;;5.37;100.00
12475;BME280;6302;42.624;23.334;2023-03-17T09:27:19;93724.97;;;5.53;100.00
12475;BME280;6302;42.624;23.334;2023-03-17T09:29:46;93715.50;;;5.49;100.00
12475;BME280;6302;42.624;23.334;2023-03-17T09:32:14;93723.31;;;5.64;100.00
12475;BME280;6302;42.624;23.334;2023-03-17T09:34:42;93722.72;;;5.74;100.00
12475;BME280;6302;42.624;23.334;2023-03-17T09:37:09;93726.56;;;5.80;100.00
12475;BME280;6302;42.624;23.334;2023-03-17T09:39:36;93729.50;;;5.95;100.00
12475;BME280;6302;42.624;23.334;2023-03-17T09:42:11;93732.22;;;6.02;100.00
12475;BME280;6302;42.624;23.334;2023-03-17T09:44:55;93738.06;;;5.92;100.00
12475;BME280;6302;42.624;23.334;2023-03-17T09:47:44;93730.94;;;5.73;100.00
12475;BME280;6302;42.624;23.334;2023-03-17T09:50:18;93730.91;;;5.69;100.00
12475;BME280;6302;42.624;23.334;2023-03-17T09:52:48;93742.53;;;5.87;100.00
12475;BME280;6302;42.624;23.334;2023-03-17T09:55:22;93742.34;;;6.00;100.00
12475;BME280;6302;42.624;23.334;2023-03-17T09:57:53;93738.41;;;6.13;100.00
12475;BME280;6302;42.624;23.334;2023-03-17T10:00:22;93734.84;;;6.24;100.00
12475;BME280;6302;42.624;23.334;2023-03-17T10:02:53;93743.19;;;6.30;100.00
12475;BME280;6302;42.624;23.334;2023-03-17T10:05:23;93741.63;;;6.25;100.00
12475;BME280;6302;42.624;23.334;2023-03-17T10:07:57;93752.78;;;6.19;100.00
12475;BME280;6302;42.624;23.334;2023-03-17T10:10:30;93749.13;;;6.01;100.00
12475;BME280;6302;42.624;23.334;2023-03-17T10:13:06;93747.06;;;5.90;100.00
12475;BME280;6302;42.624;23.334;2023-03-17T10:15:39;93744.09;;;5.92;100.00
12475;BME280;6302;42.624;23.334;2023-03-17T10:18:13;93742.16;;;6.12;100.00
12475;BME280;6302;42.624;23.334;2023-03-17T10:20:47;93744.41;;;6.10;100.00
12475;BME280;6302;42.624;23.334;2023-03-17T10:23:19;93743.78;;;6.20;100.00
12475;BME280;6302;42.624;23.334;2023-03-17T10:25:47;93743.91;;;6.27;100.00
12475;BME280;6302;42.624;23.334;2023-03-17T10:28:24;93746.53;;;6.27;100.00
12475;BME280;6302;42.624;23.334;2023-03-17T10:30:52;93743.84;;;6.23;100.00
12475;BME280;6302;42.624;23.334;2023-03-17T10:33:21;93746.06;;;6.21;100.00
12475;BME280;6302;42.624;23.334;2023-03-17T10:35:48;93740.97;;;6.32;100.00
12475;BME280;6302;42.624;23.334;2023-03-17T10:38:16;93732.72;;;6.33;100.00
12475;BME280;6302;42.624;23.334;2023-03-17T10:40:45;93731.03;;;6.48;100.00
12475;BME280;6302;42.624;23.334;2023-03-17T10:43:18;93737.97;;;6.60;100.00
12475;BME280;6302;42.624;23.334;2023-03-17T10:45:58;93727.72;;;6.51;100.00
12475;BME280;6302;42.624;23.334;2023-03-17T10:48:28;93734.91;;;6.54;100.00
12475;BME280;6302;42.624;23.334;2023-03-17T10:50:56;93734.03;;;6.46;100.00
12475;BME280;6302;42.624;23.334;2023-03-17T10:53:26;93719.28;;;6.42;100.00
12475;BME280;6302;42.624;23.334;2023-03-17T10:55:59;93722.63;;;6.65;100.00
12475;BME280;6302;42.624;23.334;2023-03-17T10:58:36;93720.59;;;6.55;100.00
12475;BME280;6302;42.624;23.334;2023-03-17T11:01:07;93721.63;;;6.47;100.00
12475;BME280;6302;42.624;23.334;2023-03-17T11:03:42;93716.09;;;6.55;100.00
12475;BME280;6302;42.624;23.334;2023-03-17T11:06:11;93710.47;;;6.57;100.00
12475;BME280;6302;42.624;23.334;2023-03-17T11:08:40;93696.38;;;6.72;100.00
12475;BME280;6302;42.624;23.334;2023-03-17T11:11:09;93705.28;;;6.90;100.00
12475;BME280;6302;42.624;23.334;2023-03-17T11:13:47;93708.06;;;7.04;92.18
12475;BME280;6302;42.624;23.334;2023-03-17T11:16:18;93700.72;;;6.87;91.59
12475;BME280;6302;42.624;23.334;2023-03-17T11:18:51;93700.16;;;7.04;93.84
12475;BME280;6302;42.624;23.334;2023-03-17T11:21:23;93689.78;;;7.18;93.48
12475;BME280;6302;42.624;23.334;2023-03-17T11:23:56;93694.41;;;7.29;95.71
12475;BME280;6302;42.624;23.334;2023-03-17T11:26:47;93682.50;;;7.42;94.92
12475;BME280;6302;42.624;23.334;2023-03-17T11:29:25;93680.75;;;7.56;93.44
12475;BME280;6302;42.624;23.334;2023-03-17T11:32:01;93679.41;;;7.73;92.89
12475;BME280;6302;42.624;23.334;2023-03-17T11:34:40;93686.13;;;7.67;87.65
12475;BME280;6302;42.624;23.334;2023-03-17T11:37:19;93690.16;;;7.54;85.44
12475;BME280;6302;42.624;23.334;2023-03-17T11:39:54;93681.75;;;7.41;87.93
12475;BME280;6302;42.624;23.334;2023-03-17T11:42:25;93689.13;;;7.29;83.11
12475;BME280;6302;42.624;23.334;2023-03-17T11:45:16;93687.25;;;7.26;87.97
12475;BME280;6302;42.624;23.334;2023-03-17T11:48:05;93690.44;;;7.08;85.93
12475;BME280;6302;42.624;23.334;2023-03-17T11:50:40;93684.91;;;6.87;85.58
12475;BME280;6302;42.624;23.334;2023-03-17T11:53:22;93693.25;;;6.93;84.41
12475;BME280;6302;42.624;23.334;2023-03-17T11:55:55;93692.56;;;6.96;88.79
12475;BME280;6302;42.624;23.334;2023-03-17T11:58:29;93677.78;;;6.91;87.09
12475;BME280;6302;42.624;23.334;2023-03-17T12:01:00;93690.03;;;7.06;85.91
12475;BME280;6302;42.624;23.334;2023-03-17T12:03:30;93683.25;;;7.05;81.78
12475;BME280;6302;42.624;23.334;2023-03-17T12:06:11;93686.75;;;7.16;82.95
12475;BME280;6302;42.624;23.334;2023-03-17T12:08:41;93670.53;;;7.11;82.50
12475;BME280;6302;42.624;23.334;2023-03-17T12:11:12;93680.44;;;7.25;81.45
12475;BME280;6302;42.624;23.334;2023-03-17T12:13:43;93676.50;;;7.45;80.40
12475;BME280;6302;42.624;23.334;2023-03-17T12:16:14;93668.84;;;7.69;81.17
12475;BME280;6302;42.624;23.334;2023-03-17T12:18:47;93668.31;;;7.97;82.35
12475;BME280;6302;42.624;23.334;2023-03-17T12:21:23;93666.94;;;8.17;83.27
12475;BME280;6302;42.624;23.334;2023-03-17T12:23:59;93664.78;;;8.26;83.12
12475;BME280;6302;42.624;23.334;2023-03-17T12:26:33;93661.88;;;8.45;82.69
12475;BME280;6302;42.624;23.334;2023-03-17T12:29:04;93657.41;;;8.60;78.98
12475;BME280;6302;42.624;23.334;2023-03-17T12:31:35;93652.38;;;8.37;75.60
12475;BME280;6302;42.624;23.334;2023-03-17T12:34:07;93661.81;;;8.38;74.50
12475;BME280;6302;42.624;23.334;2023-03-17T12:36:38;93661.06;;;8.34;74.86
12475;BME280;6302;42.624;23.334;2023-03-17T12:39:08;93659.56;;;8.40;75.05
12475;BME280;6302;42.624;23.334;2023-03-17T12:44:39;93661.84;;;7.91;78.06
12475;BME280;6302;42.624;23.334;2023-03-17T12:47:23;93666.00;;;7.92;76.56
12475;BME280;6302;42.624;23.334;2023-03-17T12:53:17;93667.50;;;7.90;76.77
12475;BME280;6302;42.624;23.334;2023-03-17T12:55:50;93656.91;;;7.86;77.81
12475;BME280;6302;42.624;23.334;2023-03-17T12:58:27;93655.50;;;8.03;78.54
12475;BME280;6302;42.624;23.334;2023-03-17T13:01:04;93653.25;;;8.01;76.81
12475;BME280;6302;42.624;23.334;2023-03-17T13:03:33;93656.84;;;7.79;79.75
12475;BME280;6302;42.624;23.334;2023-03-17T13:06:05;93650.97;;;7.56;79.47
12475;BME280;6302;42.624;23.334;2023-03-17T13:08:37;93664.38;;;7.37;79.61
12475;BME280;6302;42.624;23.334;2023-03-17T13:11:16;93665.72;;;7.23;77.59
12475;BME280;6302;42.624;23.334;2023-03-17T13:13:54;93656.00;;;7.28;77.28
12475;BME280;6302;42.624;23.334;2023-03-17T13:16:29;93649.53;;;7.21;77.32
12475;BME280;6302;42.624;23.334;2023-03-17T13:21:58;93653.28;;;7.57;80.61